Time;durP1;ratioP1;P1;durP2;ratioP2;P2;SDS_P1;SDS_P2;PMS_P1;PMS_P2;Temp;Humidity;BMP_temperature;BMP_pressure;BME280_temperature;BME280_humidity;BME280_pressure;Samples;Min_cycle;Max_cycle;Signal;HPM_P1;HPM_P2
2022/06/25 00:01:40;;;;;;;2.00;1.58;;;23.00;63.60;;;;;;5063826;28;20057;-73
2022/06/25 00:05:27;;;;;;;1.83;1.70;;;22.90;60.70;;;;;;5051313;28;20053;-74
2022/06/25 00:06:54;;;;;;;2.05;1.80;;;23.00;60.80;;;;;;5050251;28;20445;-73
2022/06/25 00:09:20;;;;;;;1.83;1.60;;;22.90;60.80;;;;;;5050407;28;20051;-73
2022/06/25 00:14:31;;;;;;;2.55;1.73;;;22.90;60.70;;;;;;5050333;28;20052;-75
2022/06/25 00:16:59;;;;;;;1.73;1.63;;;22.90;60.80;;;;;;5062181;28;20061;-73
2022/06/25 00:19:26;;;;;;;2.45;1.83;;;22.90;60.80;;;;;;5050122;28;20056;-73
2022/06/25 00:21:53;;;;;;;1.88;1.50;;;22.90;60.70;;;;;;5050087;28;20053;-73
2022/06/25 00:24:20;;;;;;;1.70;1.60;;;24.10;63.90;;;;;;5050130;28;20147;-73
2022/06/25 00:26:46;;;;;;;2.20;1.75;;;22.90;60.70;;;;;;5050196;28;20155;-73
2022/06/25 00:29:13;;;;;;;1.65;1.50;;;22.80;63.50;;;;;;5049971;28;20132;-74
2022/06/25 00:31:40;;;;;;;2.42;1.65;;;22.90;60.70;;;;;;5049878;28;20048;-75
2022/06/25 00:34:08;;;;;;;1.88;1.55;;;22.90;60.70;;;;;;5064447;28;20080;-73
2022/06/25 00:36:35;;;;;;;1.70;1.60;;;22.80;60.70;;;;;;5061128;28;20075;-73
2022/06/25 00:39:01;;;;;;;1.80;1.65;;;23.00;63.50;;;;;;5049900;28;20137;-73
2022/06/25 00:41:29;;;;;;;1.83;1.50;;;22.90;60.70;;;;;;5050189;28;20529;-73
2022/06/25 00:43:56;;;;;;;1.92;1.40;;;22.90;60.70;;;;;;5049552;28;20057;-73
2022/06/25 00:46:22;;;;;;;1.67;1.58;;;22.80;60.70;;;;;;5049523;28;20136;-73
2022/06/25 00:48:49;;;;;;;1.92;1.70;;;22.80;60.70;;;;;;5049737;28;20055;-73
2022/06/25 00:51:17;;;;;;;1.60;1.50;;;22.80;60.70;;;;;;5069418;28;20055;-73
2022/06/25 00:53:45;;;;;;;1.70;1.60;;;22.80;62.80;;;;;;5069564;28;20060;-73
2022/06/25 00:56:13;;;;;;;2.15;1.65;;;22.80;60.70;;;;;;5069470;28;20131;-73
2022/06/25 00:58:41;;;;;;;1.92;1.70;;;22.80;62.90;;;;;;5067504;28;20156;-73
2022/06/25 01:01:09;;;;;;;2.17;1.77;;;22.80;60.70;;;;;;5068823;28;20049;-73
2022/06/25 01:03:36;;;;;;;2.08;1.73;;;22.80;60.70;;;;;;5069255;28;20057;-73
2022/06/25 01:06:02;;;;;;;1.63;1.50;;;22.80;60.70;;;;;;5062949;28;20059;-73
2022/06/25 01:08:32;;;;;;;1.88;1.67;;;22.80;60.70;;;;;;5048625;28;20053;-73
2022/06/25 01:10:59;;;;;;;1.60;1.50;;;22.80;60.70;;;;;;5048482;28;20049;-73
2022/06/25 01:13:26;;;;;;;1.83;1.63;;;22.60;63.30;;;;;;5048778;28;20136;-73
2022/06/25 01:15:52;;;;;;;1.73;1.63;;;22.60;62.50;;;;;;5059731;28;20091;-73
2022/06/25 01:18:19;;;;;;;1.98;1.83;;;22.80;60.70;;;;;;5067002;28;20060;-74
2022/06/25 01:20:46;;;;;;;1.98;1.70;;;22.70;60.60;;;;;;5055913;28;20661;-73
2022/06/25 01:23:14;;;;;;;2.10;1.77;;;22.70;60.70;;;;;;5068569;28;20048;-73
2022/06/25 01:25:41;;;;;;;2.17;1.98;;;22.70;60.60;;;;;;5068790;28;20056;-73
2022/06/25 01:28:08;;;;;;;1.90;1.63;;;22.70;60.70;;;;;;5069139;28;20143;-73
2022/06/25 01:30:34;;;;;;;1.67;1.50;;;22.70;60.70;;;;;;5068000;28;20055;-73
2022/06/25 01:33:01;;;;;;;2.33;1.65;;;22.70;60.70;;;;;;5067827;28;20053;-75
2022/06/25 01:35:28;;;;;;;1.70;1.60;;;22.70;60.60;;;;;;5068774;28;20483;-73
2022/06/25 01:37:55;;;;;;;1.55;1.45;;;22.70;60.70;;;;;;5068691;28;20084;-73
2022/06/25 01:40:23;;;;;;;2.08;1.67;;;22.70;60.60;;;;;;5068866;28;20054;-74
2022/06/25 01:43:02;;;;;;;2.35;1.83;;;22.70;60.70;;;;;;5068085;28;20045;-76
2022/06/25 01:45:30;;;;;;;1.70;1.60;;;22.60;60.60;;;;;;5068394;28;20068;-73
2022/06/25 01:47:57;;;;;;;2.30;1.80;;;22.70;60.70;;;;;;5068429;28;20053;-73
2022/06/25 01:50:23;;;;;;;1.90;1.70;;;22.70;60.70;;;;;;5066724;28;20053;-73
2022/06/25 01:52:50;;;;;;;2.28;1.65;;;22.60;60.60;;;;;;5068112;28;20060;-73
2022/06/25 01:55:17;;;;;;;1.80;1.60;;;22.60;60.60;;;;;;5068652;28;20273;-73
2022/06/25 01:57:45;;;;;;;1.80;1.50;;;22.50;60.60;;;;;;5068247;28;20048;-75
2022/06/25 02:00:14;;;;;;;1.70;1.60;;;22.60;60.60;;;;;;5068177;28;20132;-74
2022/06/25 02:02:41;;;;;;;2.22;1.60;;;22.60;60.60;;;;;;5067773;28;20055;-73
2022/06/25 02:05:08;;;;;;;1.83;1.60;;;23.70;64.70;;;;;;5067503;28;20109;-73
2022/06/25 02:07:35;;;;;;;2.05;1.75;;;22.60;60.70;;;;;;5068064;28;20056;-73
2022/06/25 02:10:02;;;;;;;2.22;2.00;;;22.60;60.60;;;;;;5067978;28;20051;-73
2022/06/25 02:12:29;;;;;;;3.10;1.80;;;22.50;64.00;;;;;;5067882;28;20058;-73
2022/06/25 02:14:57;;;;;;;1.80;1.65;;;22.50;64.00;;;;;;5067779;28;20040;-73
2022/06/25 02:17:24;;;;;;;1.98;1.50;;;22.60;60.60;;;;;;5067455;28;20084;-73
2022/06/25 02:19:50;;;;;;;2.33;1.60;;;22.50;60.60;;;;;;5067366;28;20055;-73
2022/06/25 02:22:17;;;;;;;3.13;1.70;;;22.50;60.60;;;;;;5066959;28;20056;-73
2022/06/25 02:24:44;;;;;;;1.70;1.60;;;22.50;60.60;;;;;;5067975;28;20079;-73
2022/06/25 02:27:10;;;;;;;2.25;1.60;;;21.70;63.30;;;;;;5069099;28;20128;-73
2022/06/25 02:29:37;;;;;;;2.50;2.00;;;21.20;59.90;;;;;;5067066;28;20519;-73
2022/06/25 02:32:06;;;;;;;2.70;1.90;;;22.50;60.60;;;;;;5067776;28;20080;-73
2022/06/25 02:34:33;;;;;;;2.00;1.63;;;22.70;63.60;;;;;;5067458;28;20052;-73
2022/06/25 02:36:59;;;;;;;2.30;1.83;;;21.50;63.00;;;;;;5059396;28;20059;-73
2022/06/25 02:39:26;;;;;;;1.90;1.70;;;22.50;60.60;;;;;;5048942;28;20505;-73
2022/06/25 02:41:53;;;;;;;1.95;1.75;;;22.50;60.70;;;;;;5047631;28;20474;-74
2022/06/25 02:44:20;;;;;;;1.77;1.67;;;22.50;60.70;;;;;;5047522;28;20057;-73
2022/06/25 02:46:47;;;;;;;2.58;1.75;;;22.50;60.60;;;;;;5050779;28;20408;-73
2022/06/25 02:49:15;;;;;;;1.95;1.75;;;22.50;60.60;;;;;;5067727;28;20056;-75
2022/06/25 02:51:42;;;;;;;1.80;1.70;;;22.50;60.60;;;;;;5068687;28;20483;-75
2022/06/25 02:54:08;;;;;;;2.42;1.75;;;22.50;60.60;;;;;;5066600;28;20056;-73
2022/06/25 02:59:19;;;;;;;2.97;1.60;;;22.40;60.60;;;;;;5067047;28;20060;-73
2022/06/25 03:01:46;;;;;;;2.10;1.88;;;22.40;60.70;;;;;;5068126;28;20123;-73
2022/06/25 03:04:14;;;;;;;2.00;1.70;;;22.40;64.30;;;;;;5065761;28;20060;-73
2022/06/25 03:06:41;;;;;;;2.08;1.80;;;22.40;60.60;;;;;;5067535;28;20157;-73
2022/06/25 03:09:07;;;;;;;1.98;1.77;;;21.40;62.90;;;;;;5067160;28;20062;-73
2022/06/25 03:11:34;;;;;;;2.00;1.80;;;22.40;63.70;;;;;;5052430;28;20132;-73
2022/06/25 03:14:01;;;;;;;1.70;1.60;;;22.40;60.60;;;;;;5047148;28;20446;-73
2022/06/25 03:16:27;;;;;;;2.38;1.83;;;22.40;60.60;;;;;;5062899;28;20059;-73
2022/06/25 03:18:54;;;;;;;2.33;1.77;;;22.40;60.60;;;;;;5067129;28;20052;-75
2022/06/25 03:21:22;;;;;;;3.65;1.90;;;22.40;60.60;;;;;;5067626;28;20579;-74
2022/06/25 03:23:49;;;;;;;2.10;1.90;;;22.30;61.10;;;;;;5067129;28;20138;-73
2022/06/25 03:26:16;;;;;;;2.00;1.80;;;22.30;60.60;;;;;;5066788;28;20131;-73
2022/06/25 03:28:42;;;;;;;2.10;1.85;;;22.30;60.60;;;;;;5050259;28;20055;-73
2022/06/25 03:31:09;;;;;;;2.30;1.80;;;22.30;63.30;;;;;;5066651;28;20090;-73
2022/06/25 03:33:36;;;;;;;1.90;1.67;;;22.20;63.50;;;;;;5067066;28;20084;-73
2022/06/25 03:36:02;;;;;;;1.85;1.60;;;22.30;60.60;;;;;;5069843;28;20067;-73
2022/06/25 03:38:30;;;;;;;1.92;1.70;;;22.30;60.60;;;;;;5071180;28;20063;-72
2022/06/25 03:43:38;;;;;;;2.35;1.70;;;22.30;60.60;;;;;;5068816;28;20129;-72
2022/06/25 03:46:05;;;;;;;2.05;1.85;;;22.40;60.70;;;;;;5051145;28;20135;-72
2022/06/25 03:48:32;;;;;;;2.22;1.80;;;22.20;62.70;;;;;;5050832;28;20061;-72
2022/06/25 03:50:59;;;;;;;1.63;1.52;;;22.30;60.60;;;;;;5050559;28;20048;-72
2022/06/25 03:53:26;;;;;;;2.35;1.77;;;22.30;60.60;;;;;;5050346;28;20049;-72
2022/06/25 03:55:54;;;;;;;2.42;1.80;;;22.30;60.60;;;;;;5051046;28;20139;-72
2022/06/25 03:58:21;;;;;;;2.05;1.85;;;22.30;60.60;;;;;;5050945;28;20063;-72
2022/06/25 04:00:47;;;;;;;2.05;1.85;;;22.20;60.60;;;;;;5052256;28;20053;-72
2022/06/25 04:03:14;;;;;;;2.05;1.70;;;22.30;60.60;;;;;;5070293;28;20083;-72
2022/06/25 04:05:41;;;;;;;1.77;1.67;;;22.30;60.60;;;;;;5070639;28;20044;-72
2022/06/25 04:08:07;;;;;;;1.92;1.73;;;22.30;60.60;;;;;;5070425;28;20080;-72
2022/06/25 04:10:34;;;;;;;2.05;1.48;;;22.20;63.10;;;;;;5071338;28;20084;-72
2022/06/25 04:13:02;;;;;;;2.03;1.77;;;22.30;60.60;;;;;;5068929;28;20056;-72
2022/06/25 04:15:29;;;;;;;1.88;1.70;;;22.00;62.50;;;;;;5070576;28;20071;-72
2022/06/25 04:17:56;;;;;;;1.70;1.60;;;22.20;60.60;;;;;;5070158;28;20144;-72
2022/06/25 04:20:23;;;;;;;2.58;1.70;;;22.20;60.60;;;;;;5069963;28;20417;-72
2022/06/25 04:22:49;;;;;;;1.70;1.60;;;22.20;60.50;;;;;;5069902;28;20056;-72
2022/06/25 04:25:16;;;;;;;1.85;1.75;;;22.30;60.60;;;;;;5071497;28;20547;-72
2022/06/25 04:30:28;;;;;;;1.70;1.58;;;22.30;60.50;;;;;;5071263;28;20094;-72
2022/06/25 04:32:55;;;;;;;2.83;1.75;;;22.30;63.20;;;;;;5069834;28;20074;-72
2022/06/25 04:35:21;;;;;;;2.05;1.75;;;22.50;63.60;;;;;;5070219;28;20049;-72
2022/06/25 04:37:48;;;;;;;1.70;1.60;;;23.10;63.90;;;;;;5070220;28;20057;-72
2022/06/25 04:40:15;;;;;;;2.47;1.70;;;22.30;60.50;;;;;;5069595;28;20086;-72
2022/06/25 04:42:42;;;;;;;2.00;1.80;;;22.30;60.40;;;;;;5069959;28;20136;-72
2022/06/25 04:45:09;;;;;;;2.30;1.80;;;22.30;60.40;;;;;;5066535;28;20075;-72
2022/06/25 04:47:38;;;;;;;2.03;1.70;;;22.20;61.20;;;;;;5068565;28;20056;-72
2022/06/25 04:50:05;;;;;;;3.00;1.90;;;22.30;60.40;;;;;;5068512;28;20447;-72
2022/06/25 04:52:31;;;;;;;1.92;1.70;;;22.30;60.40;;;;;;5070530;28;20144;-72
2022/06/25 04:54:58;;;;;;;1.90;1.70;;;22.30;63.40;;;;;;5069444;28;20132;-72
2022/06/25 04:57:25;;;;;;;2.10;1.83;;;22.30;60.40;;;;;;5069657;28;20055;-72
2022/06/25 04:59:51;;;;;;;2.03;1.83;;;22.30;60.40;;;;;;5068858;28;20155;-72
2022/06/25 05:02:18;;;;;;;3.45;2.17;;;22.30;60.40;;;;;;5067663;28;20056;-72
2022/06/25 05:04:46;;;;;;;2.17;1.73;;;22.30;60.50;;;;;;5069472;28;20520;-72
2022/06/25 05:07:14;;;;;;;2.15;1.90;;;22.30;60.50;;;;;;5068906;28;20059;-72
2022/06/25 05:09:40;;;;;;;3.10;1.88;;;22.30;60.50;;;;;;5069254;28;20048;-72
2022/06/25 05:12:07;;;;;;;1.98;1.70;;;22.30;60.50;;;;;;5069235;28;20060;-72
2022/06/25 05:14:34;;;;;;;2.10;1.60;;;22.30;63.80;;;;;;5068537;28;20436;-72
2022/06/25 05:17:01;;;;;;;1.90;1.70;;;22.30;60.50;;;;;;5069415;28;20071;-72
2022/06/25 05:19:27;;;;;;;1.85;1.75;;;22.30;60.40;;;;;;5068396;28;20056;-72
2022/06/25 05:21:55;;;;;;;2.72;2.00;;;22.30;60.40;;;;;;5069285;28;20136;-72
2022/06/25 05:24:22;;;;;;;1.90;1.80;;;22.30;60.40;;;;;;5068758;28;20485;-72
2022/06/25 05:26:49;;;;;;;2.78;1.85;;;22.30;60.50;;;;;;5068786;28;20044;-72
2022/06/25 05:29:15;;;;;;;2.22;1.60;;;22.30;60.50;;;;;;5068767;28;20058;-72
2022/06/25 05:31:43;;;;;;;2.10;1.90;;;22.30;60.50;;;;;;5068936;28;20058;-73
2022/06/25 05:34:10;;;;;;;1.88;1.70;;;22.30;60.40;;;;;;5068912;28;20115;-73
2022/06/25 05:36:36;;;;;;;1.80;1.70;;;21.50;63.20;;;;;;5068942;28;20048;-73
2022/06/25 05:39:04;;;;;;;1.90;1.70;;;22.30;60.40;;;;;;5068917;28;20423;-73
2022/06/25 05:41:31;;;;;;;2.00;1.70;;;22.40;61.10;;;;;;5068997;28;20572;-73
2022/06/25 05:43:58;;;;;;;1.73;1.60;;;22.50;60.70;;;;;;5068726;28;20060;-73
2022/06/25 05:46:25;;;;;;;1.70;1.60;;;22.50;60.60;;;;;;5068515;28;20463;-73
2022/06/25 05:48:51;;;;;;;1.63;1.52;;;22.60;60.50;;;;;;5068629;28;20051;-73
2022/06/25 05:51:18;;;;;;;1.50;1.40;;;22.80;60.40;;;;;;5058852;28;20477;-73
2022/06/25 05:53:45;;;;;;;4.15;1.60;;;22.90;60.20;;;;;;5061163;28;20060;-73
2022/06/25 05:56:13;;;;;;;1.80;1.70;;;23.10;60.10;;;;;;5068590;28;20056;-72
2022/06/25 05:58:39;;;;;;;1.73;1.63;;;23.20;59.80;;;;;;5067699;28;20052;-71
2022/06/25 06:01:06;;;;;;;2.25;1.50;;;23.50;62.20;;;;;;5068009;28;20396;-72
2022/06/25 06:03:33;;;;;;;3.15;1.50;;;23.50;61.80;;;;;;5068619;28;20058;-73
2022/06/25 06:05:59;;;;;;;2.17;1.60;;;23.60;58.90;;;;;;5067581;28;20131;-73
2022/06/25 06:08:26;;;;;;;4.10;1.88;;;23.90;61.80;;;;;;5068001;28;20086;-74
2022/06/25 06:10:53;;;;;;;2.47;1.65;;;23.90;58.50;;;;;;5068047;28;20072;-74
2022/06/25 06:13:21;;;;;;;5.07;1.90;;;24.00;58.30;;;;;;5069362;28;20144;-74
2022/06/25 06:15:48;;;;;;;2.53;1.88;;;24.10;58.10;;;;;;5069468;28;20572;-73
2022/06/25 06:18:15;;;;;;;5.20;2.70;;;24.40;60.70;;;;;;5065762;28;20052;-73
2022/06/25 06:20:41;;;;;;;3.92;2.50;;;24.30;58.00;;;;;;5057117;28;20481;-73
2022/06/25 06:23:08;;;;;;;5.07;2.75;;;24.40;58.00;;;;;;5055527;28;20576;-72
2022/06/25 06:25:35;;;;;;;4.32;2.58;;;25.10;61.10;;;;;;5065058;28;20139;-75
2022/06/25 06:28:02;;;;;;;4.43;3.35;;;24.60;58.30;;;;;;5054799;28;20630;-73
2022/06/25 06:30:30;;;;;;;5.88;2.85;;;25.60;61.90;;;;;;5047799;28;20051;-72
2022/06/25 06:32:56;;;;;;;7.03;3.22;;;24.70;58.20;;;;;;5047331;28;20060;-73
2022/06/25 06:35:23;;;;;;;16.48;3.50;;;24.00;60.80;;;;;;5050064;28;20080;-73
2022/06/25 06:37:50;;;;;;;7.90;3.25;;;24.80;58.50;;;;;;5066803;28;20055;-73
2022/06/25 06:40:16;;;;;;;8.52;3.50;;;26.10;62.80;;;;;;5068567;28;20109;-72
2022/06/25 06:42:43;;;;;;;8.23;3.20;;;24.90;58.40;;;;;;5067650;28;20059;-72
2022/06/25 06:45:11;;;;;;;5.60;3.08;;;25.00;58.30;;;;;;5068659;28;20486;-72
2022/06/25 06:47:39;;;;;;;6.93;2.90;;;25.00;58.30;;;;;;5067506;28;20056;-73
2022/06/25 06:50:06;;;;;;;9.57;3.13;;;25.10;58.30;;;;;;5068508;28;20401;-73
2022/06/25 06:52:33;;;;;;;7.20;3.35;;;25.10;58.40;;;;;;5053756;28;20045;-73
2022/06/25 06:55:01;;;;;;;9.98;3.20;;;26.20;61.30;;;;;;5066111;28;20079;-72
2022/06/25 06:57:28;;;;;;;10.25;3.42;;;25.20;58.60;;;;;;5053898;28;20076;-74
2022/06/25 06:59:55;;;;;;;9.15;3.55;;;25.20;58.60;;;;;;5048770;28;20055;-74
2022/06/25 07:02:23;;;;;;;7.68;3.40;;;25.20;58.60;;;;;;5060658;28;20052;-75
2022/06/25 07:04:52;;;;;;;7.97;3.45;;;25.20;58.70;;;;;;5067406;28;20052;-74
2022/06/25 07:07:18;;;;;;;4.55;3.30;;;25.20;58.90;;;;;;5067484;28;20754;-74
2022/06/25 07:09:45;;;;;;;8.75;3.35;;;25.20;59.00;;;;;;5062465;28;20053;-74
2022/06/25 07:12:12;;;;;;;7.30;3.00;;;25.30;61.80;;;;;;5051248;28;20045;-72
2022/06/25 07:14:38;;;;;;;8.00;2.90;;;25.40;59.30;;;;;;5052176;28;20063;-71
2022/06/25 07:17:05;;;;;;;6.43;2.65;;;25.30;58.90;;;;;;5070684;28;20087;-72
2022/06/25 07:19:32;;;;;;;6.10;2.88;;;25.40;58.80;;;;;;5062514;28;20131;-72
2022/06/25 07:22:00;;;;;;;10.65;2.80;;;25.40;62.00;;;;;;5051552;28;20053;-71
2022/06/25 07:24:27;;;;;;;7.05;2.40;;;25.50;58.60;;;;;;5051015;28;20456;-71
2022/06/25 07:26:54;;;;;;;5.93;2.80;;;25.50;58.50;;;;;;5052504;28;20052;-71
2022/06/25 07:29:20;;;;;;;9.60;2.83;;;25.60;58.50;;;;;;5068619;28;20416;-72
2022/06/25 07:31:48;;;;;;;4.32;2.55;;;25.70;58.40;;;;;;5071190;28;20044;-72
2022/06/25 07:34:15;;;;;;;4.82;2.28;;;25.70;58.10;;;;;;5070475;28;20451;-72
2022/06/25 07:36:41;;;;;;;6.20;2.60;;;25.80;57.80;;;;;;5070953;28;20054;-72
2022/06/25 07:39:09;;;;;;;4.88;2.15;;;25.90;57.60;;;;;;5071210;28;20058;-72
2022/06/25 07:41:36;;;;;;;5.30;2.20;;;27.30;61.10;;;;;;5072377;28;20076;-72
2022/06/25 07:44:03;;;;;;;2.88;1.95;;;27.40;61.00;;;;;;5059921;28;20064;-72
2022/06/25 07:46:30;;;;;;;5.70;2.20;;;26.20;57.00;;;;;;5052011;28;20052;-72
2022/06/25 07:48:57;;;;;;;3.10;1.73;;;26.30;56.80;;;;;;5050805;28;20508;-72
2022/06/25 07:54:07;;;;;;;4.97;1.90;;;26.70;59.50;;;;;;5060957;28;20053;-73
2022/06/25 07:56:36;;;;;;;5.25;1.85;;;26.60;56.90;;;;;;5067607;28;20698;-73
2022/06/25 07:59:02;;;;;;;6.00;2.10;;;26.70;56.20;;;;;;5070658;28;20056;-73
2022/06/25 08:01:29;;;;;;;3.35;1.67;;;26.90;59.50;;;;;;5069577;28;20091;-72
2022/06/25 08:03:56;;;;;;;3.83;1.85;;;25.90;58.30;;;;;;5070737;28;20048;-73
2022/06/25 08:06:22;;;;;;;5.22;2.20;;;26.80;55.80;;;;;;5070623;28;20472;-73
2022/06/25 08:08:49;;;;;;;3.42;1.92;;;26.90;55.80;;;;;;5069890;28;20063;-73
2022/06/25 08:11:16;;;;;;;4.97;1.80;;;26.90;55.60;;;;;;5070494;28;20053;-73
2022/06/25 08:13:45;;;;;;;3.17;1.67;;;27.00;55.60;;;;;;5070187;28;20084;-72
2022/06/25 08:16:11;;;;;;;1.90;1.58;;;27.00;55.60;;;;;;5070341;28;20060;-72
2022/06/25 08:18:38;;;;;;;4.07;2.20;;;27.00;55.60;;;;;;5053767;28;20422;-73
2022/06/25 08:21:06;;;;;;;5.38;1.80;;;27.10;55.50;;;;;;5049820;28;20052;-73
2022/06/25 08:23:32;;;;;;;2.75;1.60;;;27.10;55.50;;;;;;5050057;28;20517;-73
2022/06/25 08:25:59;;;;;;;4.63;1.60;;;27.10;55.40;;;;;;5050183;28;20166;-73
2022/06/25 08:28:26;;;;;;;3.20;1.40;;;27.20;55.40;;;;;;5050091;28;20055;-72
2022/06/25 08:30:54;;;;;;;4.30;1.70;;;27.20;55.30;;;;;;5049544;28;20057;-73
2022/06/25 08:33:21;;;;;;;3.17;1.60;;;27.20;55.20;;;;;;5049567;28;20120;-72
2022/06/25 08:35:47;;;;;;;2.50;1.70;;;27.30;55.20;;;;;;5050903;28;20049;-72
2022/06/25 08:38:16;;;;;;;4.32;1.60;;;27.30;55.10;;;;;;5051025;28;20120;-72
2022/06/25 08:40:43;;;;;;;2.78;1.63;;;27.30;55.10;;;;;;5049903;28;20057;-72
2022/06/25 08:43:09;;;;;;;2.38;1.60;;;27.30;55.00;;;;;;5050726;28;20132;-73
2022/06/25 08:45:36;;;;;;;2.47;1.80;;;27.30;55.00;;;;;;5050010;28;20108;-72
2022/06/25 08:48:06;;;;;;;3.22;1.42;;;27.40;55.10;;;;;;5049582;28;20060;-72
2022/06/25 08:50:32;;;;;;;1.60;1.48;;;27.40;55.00;;;;;;5052031;28;20132;-72
2022/06/25 08:52:59;;;;;;;2.05;1.67;;;27.40;55.00;;;;;;5049086;28;20041;-72
2022/06/25 08:55:30;;;;;;;6.25;1.95;;;27.40;55.00;;;;;;5049666;28;20045;-72
2022/06/25 08:57:57;;;;;;;2.28;1.60;;;27.40;55.00;;;;;;5049244;28;20053;-71
2022/06/25 09:00:24;;;;;;;3.50;1.90;;;27.40;54.90;;;;;;5055559;28;20049;-72
2022/06/25 09:02:51;;;;;;;3.90;1.80;;;27.40;55.00;;;;;;5068785;28;20059;-75
2022/06/25 09:05:24;;;;;;;4.75;1.90;;;28.00;57.50;;;;;;5069067;28;20052;-72
2022/06/25 09:07:55;;;;;;;2.40;1.90;;;27.30;54.80;;;;;;5054205;28;20064;-72
2022/06/25 09:10:22;;;;;;;5.07;1.63;;;27.30;54.80;;;;;;5048793;28;20061;-71
2022/06/25 09:12:52;;;;;;;1.83;1.60;;;27.20;54.80;;;;;;5048620;28;20079;-72
2022/06/25 09:15:20;;;;;;;2.28;1.63;;;27.20;54.90;;;;;;5055102;28;20132;-72
2022/06/25 09:17:48;;;;;;;3.35;1.80;;;27.00;55.00;;;;;;5069948;28;20049;-71
2022/06/25 09:20:15;;;;;;;3.22;1.60;;;27.20;55.00;;;;;;5068762;28;20079;-71
2022/06/25 09:22:52;;;;;;;1.88;1.40;;;27.00;54.90;;;;;;5069362;28;20049;-72
2022/06/25 09:25:23;;;;;;;2.28;1.60;;;27.70;55.50;;;;;;5057802;28;20413;-71
2022/06/25 09:27:50;;;;;;;3.30;1.52;;;26.90;55.00;;;;;;5050310;28;20147;-72
2022/06/25 09:30:19;;;;;;;2.30;1.70;;;26.90;55.10;;;;;;5048901;28;20059;-72
2022/06/25 09:32:47;;;;;;;4.60;2.05;;;26.80;55.10;;;;;;5059075;28;20045;-72
2022/06/25 09:35:13;;;;;;;2.42;1.67;;;26.80;55.10;;;;;;5067519;28;20126;-72
2022/06/25 09:37:41;;;;;;;2.15;1.50;;;26.70;55.10;;;;;;5055298;28;20497;-72
2022/06/25 09:40:10;;;;;;;1.88;1.60;;;26.60;55.10;;;;;;5048796;28;20084;-72
2022/06/25 09:42:38;;;;;;;4.50;1.60;;;26.60;55.40;;;;;;5058107;28;20140;-73
2022/06/25 09:45:07;;;;;;;3.53;1.60;;;26.60;55.60;;;;;;5067054;28;20127;-73
2022/06/25 09:47:38;;;;;;;15.82;3.50;;;26.50;55.80;;;;;;5061793;28;20576;-73
2022/06/25 09:50:06;;;;;;;22.65;5.20;;;26.50;55.60;;;;;;5047791;28;20136;-73
2022/06/25 09:52:33;;;;;;;19.10;5.18;;;26.50;55.70;;;;;;5046001;28;20651;-73
2022/06/25 09:54:59;;;;;;;17.75;4.35;;;26.50;55.70;;;;;;5047337;28;20140;-73
2022/06/25 09:57:28;;;;;;;17.80;4.32;;;26.40;56.20;;;;;;5047307;28;20413;-74
2022/06/25 09:59:55;;;;;;;10.35;3.70;;;26.50;55.70;;;;;;5048224;28;20088;-74
2022/06/25 10:02:22;;;;;;;13.00;3.55;;;26.50;55.80;;;;;;5060708;28;20079;-74
2022/06/25 10:04:49;;;;;;;13.27;3.65;;;26.40;57.90;;;;;;5068457;28;20045;-74
2022/06/25 10:07:16;;;;;;;12.50;3.72;;;26.40;55.70;;;;;;5068354;28;20560;-74
2022/06/25 10:09:43;;;;;;;10.45;3.03;;;26.40;55.80;;;;;;5068222;28;20060;-74
2022/06/25 10:12:10;;;;;;;13.88;3.50;;;26.40;55.80;;;;;;5067895;28;20054;-73
2022/06/25 10:14:38;;;;;;;10.05;2.80;;;26.30;55.80;;;;;;5066944;28;20059;-73
2022/06/25 10:17:05;;;;;;;10.65;2.85;;;26.30;55.90;;;;;;5069193;28;20051;-73
2022/06/25 10:19:32;;;;;;;7.30;3.00;;;26.30;55.90;;;;;;5067975;28;20052;-73
2022/06/25 10:21:59;;;;;;;9.80;2.83;;;26.30;56.00;;;;;;5067452;28;20131;-73
2022/06/25 10:24:26;;;;;;;5.43;2.58;;;26.30;56.00;;;;;;5068608;28;20128;-74
2022/06/25 10:26:53;;;;;;;7.55;2.55;;;26.30;56.10;;;;;;5068248;28;20135;-74
2022/06/25 10:29:26;;;;;;;7.03;2.75;;;26.20;56.00;;;;;;5067515;28;20080;-73
2022/06/25 10:32:12;;;;;;;6.15;2.45;;;26.30;58.10;;;;;;5061655;28;20057;-73
2022/06/25 10:34:39;;;;;;;9.00;2.60;;;26.30;56.10;;;;;;5047542;28;20144;-73
2022/06/25 10:37:06;;;;;;;6.43;2.60;;;26.20;56.10;;;;;;5047850;28;20084;-73
2022/06/25 10:39:36;;;;;;;8.15;2.47;;;26.20;56.10;;;;;;5047843;28;20132;-72
2022/06/25 10:45:09;;;;;;;6.65;2.45;;;26.20;55.90;;;;;;5047396;28;20061;-72
2022/06/25 10:47:39;;;;;;;6.45;2.75;;;26.10;56.30;;;;;;5047908;28;20053;-73
2022/06/25 10:50:30;;;;;;;7.75;2.70;;;26.10;56.30;;;;;;5048454;28;20148;-73
2022/06/25 10:53:24;;;;;;;5.07;2.33;;;26.60;58.10;;;;;;5047170;28;20059;-73
2022/06/25 10:56:25;;;;;;;6.65;2.75;;;26.10;56.30;;;;;;5047416;28;20052;-73
2022/06/25 10:58:52;;;;;;;6.38;2.08;;;26.10;56.40;;;;;;5047038;28;20124;-73
2022/06/25 11:01:20;;;;;;;4.90;2.33;;;26.10;56.50;;;;;;5052219;28;20056;-73
2022/06/25 11:03:51;;;;;;;5.50;2.28;;;26.10;56.50;;;;;;5067250;28;20052;-73
2022/06/25 11:06:19;;;;;;;5.20;2.03;;;26.10;56.50;;;;;;5053610;28;20049;-73
2022/06/25 11:08:46;;;;;;;5.40;1.90;;;26.00;56.60;;;;;;5047476;28;20057;-74
2022/06/25 11:11:13;;;;;;;5.38;2.58;;;26.00;58.10;;;;;;5047643;28;20067;-73
2022/06/25 11:13:41;;;;;;;6.90;2.33;;;26.00;56.60;;;;;;5046980;28;20041;-73
2022/06/25 11:16:13;;;;;;;5.75;2.00;;;26.00;56.60;;;;;;5060595;28;20056;-73
2022/06/25 11:18:47;;;;;;;3.75;2.00;;;25.90;58.40;;;;;;5066941;28;20059;-73
2022/06/25 11:21:31;;;;;;;4.70;1.80;;;25.50;58.00;;;;;;5068636;28;20413;-73
2022/06/25 11:24:09;;;;;;;5.40;1.95;;;26.00;56.60;;;;;;5066312;28;20131;-73
2022/06/25 11:29:21;;;;;;;4.63;2.33;;;26.00;56.70;;;;;;5067224;28;20076;-72
2022/06/25 11:31:49;;;;;;;3.35;1.80;;;26.00;56.70;;;;;;5067266;28;20064;-73
2022/06/25 11:34:21;;;;;;;4.60;1.90;;;26.00;56.70;;;;;;5067759;28;20070;-73
2022/06/25 11:36:56;;;;;;;5.15;2.20;;;26.00;56.70;;;;;;5067082;28;20465;-73
2022/06/25 11:39:23;;;;;;;2.95;2.05;;;26.10;59.20;;;;;;5061428;28;20048;-73
2022/06/25 11:41:50;;;;;;;3.50;1.73;;;25.80;59.20;;;;;;5047188;28;20057;-73
2022/06/25 11:44:18;;;;;;;5.35;1.80;;;26.00;56.70;;;;;;5047056;28;20564;-73
2022/06/25 11:46:45;;;;;;;3.78;1.88;;;26.00;56.70;;;;;;5047123;28;20144;-73
2022/06/25 11:49:13;;;;;;;3.10;1.92;;;26.50;59.30;;;;;;5047138;28;20087;-73
2022/06/25 11:51:45;;;;;;;2.65;1.58;;;26.00;56.70;;;;;;5047115;28;20057;-72
2022/06/25 11:54:12;;;;;;;4.05;1.90;;;26.00;56.70;;;;;;5047917;28;20045;-73
2022/06/25 11:56:46;;;;;;;4.07;2.10;;;26.00;56.70;;;;;;5050071;28;20055;-73
2022/06/25 11:59:14;;;;;;;2.83;1.63;;;26.00;56.70;;;;;;5050647;28;20148;-72
2022/06/25 12:01:41;;;;;;;5.00;1.88;;;26.00;56.80;;;;;;5060012;28;20060;-72
2022/06/25 12:04:09;;;;;;;4.82;1.95;;;26.30;59.00;;;;;;5071560;28;20052;-73
2022/06/25 12:06:35;;;;;;;3.05;1.67;;;26.00;56.80;;;;;;5070833;28;20063;-73
2022/06/25 12:09:04;;;;;;;2.47;1.80;;;26.50;59.00;;;;;;5070546;28;20131;-73
2022/06/25 12:11:30;;;;;;;3.60;1.80;;;26.00;56.80;;;;;;5069895;28;20106;-73
2022/06/25 12:13:57;;;;;;;3.50;1.60;;;26.00;56.80;;;;;;5052783;28;20049;-73
2022/06/25 12:16:24;;;;;;;3.67;1.92;;;26.00;56.80;;;;;;5065954;28;20052;-73
2022/06/25 12:18:55;;;;;;;2.22;1.60;;;26.10;56.90;;;;;;5069929;28;20091;-73
2022/06/25 12:21:21;;;;;;;2.45;1.55;;;26.00;56.80;;;;;;5070427;28;20057;-73
2022/06/25 12:23:52;;;;;;;2.83;1.60;;;26.00;56.80;;;;;;5071891;28;20076;-73
2022/06/25 12:26:27;;;;;;;4.22;1.92;;;26.00;56.90;;;;;;5069160;28;20459;-73
2022/06/25 12:28:54;;;;;;;2.95;1.80;;;25.80;59.20;;;;;;5070037;28;20052;-73
2022/06/25 12:31:21;;;;;;;2.92;1.42;;;26.00;56.90;;;;;;5068793;28;20052;-73
2022/06/25 12:33:51;;;;;;;2.40;1.52;;;25.90;56.80;;;;;;5069775;28;20496;-73
2022/06/25 12:36:18;;;;;;;2.78;1.40;;;26.00;56.90;;;;;;5071166;28;20055;-73
2022/06/25 12:38:45;;;;;;;2.80;1.73;;;26.00;56.90;;;;;;5070080;28;20068;-73
2022/06/25 12:41:11;;;;;;;2.60;1.58;;;25.90;56.80;;;;;;5057012;28;20432;-73
2022/06/25 12:43:46;;;;;;;2.10;1.48;;;26.00;56.90;;;;;;5049863;28;20131;-72
2022/06/25 12:46:12;;;;;;;4.03;2.05;;;25.90;56.80;;;;;;5050076;28;20136;-73
2022/06/25 12:48:39;;;;;;;3.25;1.60;;;25.90;56.90;;;;;;5049097;28;20159;-73
2022/06/25 12:51:10;;;;;;;2.90;1.60;;;25.90;56.90;;;;;;5050003;28;20061;-73
2022/06/25 12:53:36;;;;;;;1.98;1.40;;;25.90;56.90;;;;;;5049227;28;20449;-73
2022/06/25 12:56:03;;;;;;;2.08;1.52;;;25.90;56.90;;;;;;5051012;28;20051;-73
2022/06/25 12:58:34;;;;;;;2.45;1.50;;;25.90;56.90;;;;;;5050840;28;20244;-73
2022/06/25 13:01:02;;;;;;;1.92;1.48;;;25.90;56.90;;;;;;5052416;28;20083;-73
2022/06/25 13:03:28;;;;;;;2.17;1.60;;;25.90;57.00;;;;;;5069282;28;20102;-73
2022/06/25 13:05:55;;;;;;;2.67;1.40;;;25.90;56.90;;;;;;5069855;28;20056;-73
2022/06/25 13:08:22;;;;;;;1.75;1.35;;;25.90;57.00;;;;;;5068255;28;20602;-73